Terminal Aerodrome Forecast
Issued by NWS

Home | Current Version | Previous Version | Text Only | Print | Product List | Glossary On
Versions: 1 2 3 4 5 6 7 8 9 10 11 12 13 14 15 16 17 18 19 20 21 22 23 24 25 26 27 28 29 30 31 32 33 34 35 36 37
000
FTUS46 KOTX 281739
TAFSFF
TAF
KSFF 281739Z 2818/2918 22016G29KT P6SM BKN110
     FM282200 23021G32KT P6SM VCSH BKN040 OVC080
     FM290100 20017G28KT P6SM -RA BKN030 OVC050
     FM290700 23011KT P6SM SCT040 BKN080
     FM291300 25007KT P6SM VCSH SCT025 BKN040=

USA.gov is the U.S. government's official web portal to all federal, state and local government web resources and services.